createdAt,value
2018-06-29T00:00:56.112Z,21.32
2018-06-29T00:02:49.085Z,21.32
2018-06-29T00:03:49.046Z,21.27
2018-06-29T00:05:41.885Z,21.18
2018-06-29T00:06:41.831Z,21.24
2018-06-29T00:08:34.804Z,21.14
2018-06-29T00:09:34.777Z,21.07
2018-06-29T00:11:27.746Z,21.09
2018-06-29T00:12:27.722Z,21.05
2018-06-29T00:14:20.683Z,21.05
2018-06-29T00:15:20.657Z,21.12
2018-06-29T00:17:13.498Z,21.05
2018-06-29T00:18:13.440Z,21.05
2018-06-29T00:20:06.432Z,20.99
2018-06-29T00:21:06.389Z,20.97
2018-06-29T00:22:59.352Z,20.90
2018-06-29T00:23:59.319Z,20.92
2018-06-29T00:25:52.538Z,20.92
2018-06-29T00:26:52.396Z,20.97
2018-06-29T00:28:45.360Z,20.92
2018-06-29T00:29:45.327Z,20.93
2018-06-29T00:31:38.311Z,20.87
2018-06-29T00:32:38.261Z,20.95
2018-06-29T00:34:31.086Z,20.90
2018-06-29T00:35:31.058Z,20.87
2018-06-29T00:37:24.088Z,20.87
2018-06-29T00:38:24.036Z,20.85
2018-06-29T00:40:17.030Z,20.77
2018-06-29T00:41:17.291Z,20.81
2018-06-29T00:43:10.116Z,20.81
2018-06-29T00:44:10.073Z,20.77
2018-06-29T00:46:03.052Z,20.81
2018-06-29T00:47:03.124Z,20.75
2018-06-29T00:48:55.972Z,20.63
2018-06-29T00:49:55.941Z,20.65
2018-06-29T00:51:48.780Z,20.69
2018-06-29T00:52:48.736Z,20.62
2018-06-29T00:54:41.833Z,20.65
2018-06-29T00:55:41.676Z,20.66
2018-06-29T00:57:34.657Z,20.72
2018-06-29T00:58:34.601Z,20.62
2018-06-29T01:00:27.578Z,20.70
2018-06-29T01:01:27.544Z,20.59
2018-06-29T01:03:20.617Z,20.67
2018-06-29T01:04:20.526Z,20.62
2018-06-29T01:06:13.345Z,20.69
2018-06-29T01:07:13.312Z,20.65
2018-06-29T01:09:06.306Z,20.65
2018-06-29T01:10:06.262Z,20.67
2018-06-29T01:11:59.407Z,20.63
2018-06-29T01:12:59.347Z,20.62
2018-06-29T01:14:52.342Z,20.52
2018-06-29T01:15:52.307Z,20.44
2018-06-29T01:17:45.283Z,20.31
2018-06-29T01:18:45.248Z,20.25
2018-06-29T01:20:38.273Z,20.14
2018-06-29T01:21:38.208Z,20.22
2018-06-29T01:23:31.212Z,20.19
2018-06-29T01:24:31.163Z,20.16
2018-06-29T01:26:24.123Z,20.04
2018-06-29T01:27:24.089Z,20.00
2018-06-29T01:29:16.949Z,19.92
2018-06-29T01:30:16.902Z,19.89
2018-06-29T01:32:09.998Z,19.85
2018-06-29T01:33:09.979Z,19.85
2018-06-29T01:35:02.954Z,19.76
2018-06-29T01:36:02.903Z,19.67
2018-06-29T01:37:56.018Z,19.71
2018-06-29T01:38:55.918Z,19.63
2018-06-29T01:40:48.739Z,19.55
2018-06-29T01:41:48.711Z,19.58
2018-06-29T01:43:41.694Z,19.41
2018-06-29T01:44:41.670Z,19.44
2018-06-29T01:46:34.476Z,19.36
2018-06-29T01:47:34.441Z,19.47
2018-06-29T01:49:27.495Z,19.30
2018-06-29T01:50:27.420Z,19.24
2018-06-29T01:52:20.411Z,19.11
2018-06-29T01:53:20.343Z,19.07
2018-06-29T01:55:13.320Z,19.08
2018-06-29T01:56:13.305Z,18.95
2018-06-29T01:58:06.089Z,18.93
2018-06-29T01:59:06.059Z,18.96
2018-06-29T02:00:58.899Z,18.93
2018-06-29T02:01:58.849Z,18.92
2018-06-29T02:03:51.814Z,18.93
2018-06-29T02:04:51.779Z,18.95
2018-06-29T02:06:44.769Z,18.90
2018-06-29T02:07:44.714Z,18.96
2018-06-29T02:09:37.920Z,18.92
2018-06-29T02:10:37.511Z,18.93
2018-06-29T02:12:30.501Z,18.96
2018-06-29T02:13:30.474Z,18.89
2018-06-29T02:15:23.445Z,18.96
2018-06-29T02:16:23.405Z,19.04
2018-06-29T02:18:16.631Z,18.96
2018-06-29T02:19:16.489Z,18.98
2018-06-29T02:21:09.533Z,18.98
2018-06-29T02:22:09.486Z,18.96
2018-06-29T02:24:02.444Z,18.96
2018-06-29T02:25:02.418Z,18.92
2018-06-29T02:26:55.303Z,18.92
2018-06-29T02:27:55.253Z,18.92
2018-06-29T02:29:48.220Z,18.96
2018-06-29T02:30:48.328Z,18.92
2018-06-29T02:32:41.180Z,18.95
2018-06-29T02:33:41.125Z,18.88
2018-06-29T02:35:34.264Z,18.84
2018-06-29T02:36:34.201Z,18.77
2018-06-29T02:38:27.189Z,18.83
2018-06-29T02:39:27.137Z,18.81
2018-06-29T02:41:19.975Z,18.80
2018-06-29T02:42:19.940Z,18.80
2018-06-29T02:44:12.894Z,18.74
2018-06-29T02:45:12.857Z,18.59
2018-06-29T02:47:05.731Z,18.60
2018-06-29T02:48:05.664Z,18.53
2018-06-29T02:49:58.655Z,18.56
2018-06-29T02:50:58.601Z,18.55
2018-06-29T02:52:51.591Z,18.55
2018-06-29T02:53:51.550Z,18.55
2018-06-29T02:55:44.665Z,18.53
2018-06-29T02:56:44.635Z,18.45
2018-06-29T02:58:37.625Z,18.52
2018-06-29T02:59:37.575Z,18.50
2018-06-29T03:01:30.532Z,18.44
2018-06-29T03:02:30.511Z,18.45
2018-06-29T03:04:23.377Z,18.52
2018-06-29T03:05:23.327Z,18.47
2018-06-29T03:07:16.302Z,18.47
2018-06-29T03:08:16.263Z,18.47
2018-06-29T03:10:09.274Z,18.52
2018-06-29T03:11:09.214Z,18.53
2018-06-29T03:13:02.405Z,18.52
2018-06-29T03:14:02.327Z,18.41
2018-06-29T03:15:55.281Z,18.44
2018-06-29T03:16:55.243Z,18.52
2018-06-29T03:18:48.218Z,18.45
2018-06-29T03:19:48.182Z,18.47
2018-06-29T03:21:41.098Z,18.47
2018-06-29T03:22:41.054Z,18.40
2018-06-29T03:24:34.088Z,18.44
2018-06-29T03:25:34.024Z,18.34
2018-06-29T03:27:26.992Z,18.37
2018-06-29T03:28:26.965Z,18.35
2018-06-29T03:30:20.084Z,18.20
2018-06-29T03:31:20.035Z,18.35
2018-06-29T03:33:13.022Z,18.23
2018-06-29T03:34:12.952Z,18.26
2018-06-29T03:36:05.760Z,18.25
2018-06-29T03:37:05.796Z,18.19
2018-06-29T03:38:58.991Z,18.16
2018-06-29T03:39:58.834Z,18.15
2018-06-29T03:41:51.791Z,18.10
2018-06-29T03:42:51.757Z,18.11
2018-06-29T03:44:44.734Z,18.11
2018-06-29T03:45:44.691Z,18.19
2018-06-29T03:47:37.845Z,18.07
2018-06-29T03:48:37.800Z,18.15
2018-06-29T03:50:30.779Z,18.11
2018-06-29T03:51:30.731Z,18.16
2018-06-29T03:53:23.728Z,18.18
2018-06-29T03:54:23.673Z,18.11
2018-06-29T03:56:16.489Z,18.11
2018-06-29T03:57:16.453Z,18.13
2018-06-29T03:59:09.417Z,18.19
2018-06-29T04:00:09.378Z,18.15
2018-06-29T04:02:02.211Z,18.16
2018-06-29T04:03:02.168Z,18.13
2018-06-29T04:04:55.153Z,18.23
2018-06-29T04:05:55.091Z,18.20
2018-06-29T04:07:47.947Z,18.13
2018-06-29T04:08:47.922Z,18.20
2018-06-29T04:10:40.898Z,18.16
2018-06-29T04:11:40.890Z,18.18
2018-06-29T04:13:33.812Z,18.26
2018-06-29T04:14:33.784Z,18.26
2018-06-29T04:16:27.024Z,18.20
2018-06-29T04:17:26.878Z,18.26
2018-06-29T04:19:20.177Z,18.26
2018-06-29T04:20:20.149Z,18.28
2018-06-29T04:22:13.080Z,18.25
2018-06-29T04:23:13.015Z,18.23
2018-06-29T04:25:06.010Z,18.23
2018-06-29T04:26:05.969Z,18.26
2018-06-29T04:27:58.922Z,18.19
2018-06-29T04:28:58.909Z,18.31
2018-06-29T04:30:51.998Z,18.33
2018-06-29T04:31:51.945Z,18.31
2018-06-29T04:33:44.913Z,18.31
2018-06-29T04:34:44.879Z,18.33
2018-06-29T04:36:37.861Z,18.31
2018-06-29T04:37:37.804Z,18.38
2018-06-29T04:39:30.933Z,18.40
2018-06-29T04:40:30.876Z,18.38
2018-06-29T04:42:23.875Z,18.47
2018-06-29T04:43:23.810Z,18.47
2018-06-29T04:45:16.784Z,18.44
2018-06-29T04:46:16.739Z,18.45
2018-06-29T04:48:09.598Z,18.53
2018-06-29T04:49:09.523Z,18.55
2018-06-29T04:51:02.434Z,18.53
2018-06-29T04:52:02.307Z,18.58
2018-06-29T04:53:55.313Z,18.65
2018-06-29T04:54:55.259Z,18.55
2018-06-29T04:56:48.234Z,18.60
2018-06-29T04:57:48.196Z,18.60
2018-06-29T04:59:41.123Z,18.60
2018-06-29T05:00:41.069Z,18.59
2018-06-29T05:02:34.044Z,18.75
2018-06-29T05:03:34.000Z,18.74
2018-06-29T05:05:26.970Z,18.78
2018-06-29T05:06:26.929Z,18.77
2018-06-29T05:08:20.150Z,18.81
2018-06-29T05:09:20.008Z,18.73
2018-06-29T05:11:13.017Z,18.88
2018-06-29T05:12:12.986Z,18.77
2018-06-29T05:14:05.966Z,18.96
2018-06-29T05:15:05.924Z,18.93
2018-06-29T05:16:59.015Z,18.93
2018-06-29T05:17:58.979Z,18.95
2018-06-29T05:19:51.969Z,18.99
2018-06-29T05:20:51.910Z,18.92
2018-06-29T05:22:44.900Z,18.99
2018-06-29T05:23:44.844Z,18.96
2018-06-29T05:25:37.669Z,19.07
2018-06-29T05:26:37.641Z,19.14
2018-06-29T05:28:30.635Z,19.16
2018-06-29T05:29:30.554Z,19.26
2018-06-29T05:31:23.532Z,19.19
2018-06-29T05:32:23.585Z,19.27
2018-06-29T05:34:16.730Z,19.19
2018-06-29T05:35:16.573Z,19.19
2018-06-29T05:37:09.541Z,19.30
2018-06-29T05:38:09.510Z,19.40
2018-06-29T05:40:02.485Z,19.45
2018-06-29T05:41:02.444Z,19.44
2018-06-29T05:42:55.643Z,19.47
2018-06-29T05:43:55.610Z,19.48
2018-06-29T05:45:48.595Z,19.55
2018-06-29T05:46:48.532Z,19.62
2018-06-29T05:48:41.551Z,19.58
2018-06-29T05:49:41.469Z,19.64
2018-06-29T05:51:34.355Z,19.67
2018-06-29T05:52:34.244Z,19.63
2018-06-29T05:54:27.265Z,19.74
2018-06-29T05:55:27.202Z,19.79
2018-06-29T05:57:20.171Z,19.76
2018-06-29T05:58:20.151Z,19.81
2018-06-29T06:00:13.327Z,19.88
2018-06-29T06:01:13.223Z,19.89
2018-06-29T06:03:06.185Z,19.95
2018-06-29T06:04:06.161Z,19.95
2018-06-29T06:05:59.142Z,20.04
2018-06-29T06:06:59.097Z,20.10
2018-06-29T06:08:52.131Z,20.22
2018-06-29T06:09:51.947Z,20.21
2018-06-29T06:11:44.913Z,20.25
2018-06-29T06:12:44.880Z,20.18
2018-06-29T06:14:37.872Z,20.26
2018-06-29T06:15:37.818Z,20.26
2018-06-29T06:17:30.978Z,20.37
2018-06-29T06:18:30.948Z,20.47
2018-06-29T06:20:23.916Z,20.47
2018-06-29T06:21:23.869Z,20.50
2018-06-29T06:23:16.839Z,20.62
2018-06-29T06:24:16.802Z,20.59
2018-06-29T06:26:09.648Z,20.58
2018-06-29T06:27:09.590Z,20.65
2018-06-29T06:29:02.582Z,20.65
2018-06-29T06:30:02.540Z,20.56
2018-06-29T06:31:55.388Z,20.65
2018-06-29T06:32:55.323Z,20.70
2018-06-29T06:34:48.346Z,20.74
2018-06-29T06:35:48.265Z,20.70
2018-06-29T06:37:41.143Z,20.80
2018-06-29T06:38:41.114Z,20.87
2018-06-29T06:40:34.108Z,20.93
2018-06-29T06:41:34.122Z,20.92
2018-06-29T06:43:27.005Z,21.05
2018-06-29T06:44:26.984Z,20.99
2018-06-29T06:46:20.202Z,21.00
2018-06-29T06:47:20.058Z,21.14
2018-06-29T06:49:13.076Z,21.07
2018-06-29T06:50:13.034Z,21.14
2018-06-29T06:52:06.013Z,21.14
2018-06-29T06:53:05.967Z,21.22
2018-06-29T06:54:58.833Z,21.35
2018-06-29T06:55:58.788Z,21.32
2018-06-29T06:57:51.699Z,21.14
2018-06-29T06:58:51.566Z,21.11
2018-06-29T07:00:44.530Z,21.21
2018-06-29T07:01:44.493Z,21.30
2018-06-29T07:03:37.476Z,21.21
2018-06-29T07:04:37.435Z,21.30
2018-06-29T07:06:30.584Z,21.46
2018-06-29T07:07:30.500Z,21.43
2018-06-29T07:09:23.474Z,21.35
2018-06-29T07:10:23.444Z,21.37
2018-06-29T07:12:16.459Z,21.50
2018-06-29T07:13:16.405Z,21.51
2018-06-29T07:15:09.426Z,21.54
2018-06-29T07:16:09.390Z,21.58
2018-06-29T07:18:02.375Z,21.57
2018-06-29T07:19:02.340Z,21.64
2018-06-29T07:20:55.311Z,21.66
2018-06-29T07:21:55.264Z,21.57
2018-06-29T07:23:48.234Z,21.55
2018-06-29T07:24:48.206Z,21.67
2018-06-29T07:26:41.201Z,21.79
2018-06-29T07:27:41.128Z,21.73
2018-06-29T07:29:34.104Z,21.89
2018-06-29T07:30:34.073Z,21.85
2018-06-29T07:32:27.130Z,21.98
2018-06-29T07:33:26.864Z,21.92
2018-06-29T07:35:19.827Z,21.95
2018-06-29T07:36:19.795Z,21.95
2018-06-29T07:38:12.761Z,22.06
2018-06-29T07:39:12.797Z,22.23
2018-06-29T07:41:05.553Z,22.15
2018-06-29T07:42:05.513Z,22.23
2018-06-29T07:43:58.489Z,22.39
2018-06-29T07:44:58.366Z,22.35
2018-06-29T07:46:51.345Z,22.43
2018-06-29T07:47:51.311Z,22.48
2018-06-29T07:49:44.741Z,22.66
2018-06-29T07:50:44.625Z,22.65
2018-06-29T07:52:37.636Z,22.68
2018-06-29T07:53:37.575Z,22.76
2018-06-29T07:55:30.556Z,22.75
2018-06-29T07:56:30.514Z,22.73
2018-06-29T07:58:23.962Z,22.68
2018-06-29T07:59:23.615Z,22.65
2018-06-29T08:01:16.440Z,22.76
2018-06-29T08:02:16.403Z,22.70
2018-06-29T08:04:09.399Z,22.75
2018-06-29T08:05:09.388Z,22.76
2018-06-29T08:07:02.512Z,22.90
2018-06-29T08:08:02.402Z,23.00
2018-06-29T08:09:55.395Z,23.12
2018-06-29T08:10:55.339Z,23.10
2018-06-29T08:12:48.318Z,23.25
2018-06-29T08:13:48.283Z,23.18
2018-06-29T08:15:41.227Z,23.17
2018-06-29T08:16:41.162Z,23.17
2018-06-29T08:18:34.150Z,23.28
2018-06-29T08:19:34.106Z,23.40
2018-06-29T08:21:27.091Z,23.51
2018-06-29T08:22:27.072Z,23.50
2018-06-29T08:24:20.396Z,23.59
2018-06-29T08:25:20.366Z,23.55
2018-06-29T08:27:13.322Z,23.62
2018-06-29T08:28:13.281Z,23.62
2018-06-29T08:30:06.482Z,23.59
2018-06-29T08:31:06.372Z,23.68
2018-06-29T08:32:59.332Z,23.69
2018-06-29T08:33:59.317Z,23.73
2018-06-29T08:35:52.310Z,23.76
2018-06-29T08:36:52.252Z,23.73
2018-06-29T08:38:45.252Z,23.87
2018-06-29T08:39:45.052Z,23.95
2018-06-29T08:41:38.038Z,24.05
2018-06-29T08:42:37.998Z,24.06
2018-06-29T08:44:30.962Z,23.98
2018-06-29T08:45:30.926Z,23.95
2018-06-29T08:47:24.191Z,24.08
2018-06-29T08:48:24.051Z,24.20
2018-06-29T08:50:17.009Z,24.18
2018-06-29T08:51:16.978Z,24.11
2018-06-29T08:53:09.973Z,24.33
2018-06-29T08:54:09.928Z,24.32
2018-06-29T08:56:02.802Z,24.39
2018-06-29T08:57:02.742Z,24.42
2018-06-29T08:58:55.872Z,24.47
2018-06-29T08:59:55.698Z,24.40
2018-06-29T09:01:48.543Z,24.61
2018-06-29T09:02:48.488Z,24.58
2018-06-29T09:04:41.557Z,24.51
2018-06-29T09:05:41.516Z,24.55
2018-06-29T09:07:34.381Z,24.60
2018-06-29T09:08:34.336Z,24.74
2018-06-29T09:10:27.462Z,24.85
2018-06-29T09:11:27.432Z,24.80
2018-06-29T09:13:20.433Z,24.81
2018-06-29T09:14:20.398Z,25.04
2018-06-29T09:16:13.293Z,25.11
2018-06-29T09:17:13.180Z,25.21
2018-06-29T09:19:06.270Z,25.14
2018-06-29T09:20:06.172Z,25.17
2018-06-29T09:21:58.998Z,25.18
2018-06-29T09:22:58.967Z,25.25
2018-06-29T09:24:52.076Z,25.25
2018-06-29T09:25:52.027Z,25.28
2018-06-29T09:27:45.010Z,25.26
2018-06-29T09:28:44.969Z,25.22
2018-06-29T09:30:37.963Z,25.13
2018-06-29T09:31:37.912Z,25.11
2018-06-29T09:33:31.119Z,25.22
2018-06-29T09:34:31.020Z,25.25
2018-06-29T09:36:24.089Z,25.29
2018-06-29T09:37:23.963Z,25.33
2018-06-29T09:39:16.985Z,25.40
2018-06-29T09:40:16.930Z,25.35
2018-06-29T09:42:09.775Z,25.51
2018-06-29T09:43:09.755Z,25.51
2018-06-29T09:45:02.593Z,25.50
2018-06-29T09:46:02.541Z,25.44
2018-06-29T09:47:55.611Z,25.59
2018-06-29T09:48:55.493Z,25.68
2018-06-29T09:50:48.339Z,25.85
2018-06-29T09:51:48.289Z,25.54
2018-06-29T09:53:41.430Z,25.63
2018-06-29T09:54:41.398Z,25.77
2018-06-29T09:56:34.432Z,25.78
2018-06-29T09:57:34.414Z,25.83
2018-06-29T09:59:27.349Z,26.05
2018-06-29T10:00:27.301Z,26.02
2018-06-29T10:02:20.297Z,26.09
2018-06-29T10:03:20.271Z,26.19
2018-06-29T10:05:13.256Z,26.43
2018-06-29T10:06:13.221Z,26.56
2018-06-29T10:08:06.196Z,27.14
2018-06-29T10:09:06.156Z,27.35
2018-06-29T10:10:59.079Z,27.87
2018-06-29T10:11:58.975Z,28.00
2018-06-29T10:13:51.963Z,28.59
2018-06-29T10:14:51.926Z,28.96
2018-06-29T10:16:44.915Z,29.47
2018-06-29T10:17:44.880Z,29.50
2018-06-29T10:19:37.783Z,30.06
2018-06-29T10:20:37.713Z,30.44
2018-06-29T10:22:30.648Z,30.83
2018-06-29T10:23:30.532Z,30.90
2018-06-29T10:25:23.623Z,30.59
2018-06-29T10:26:23.500Z,30.46
2018-06-29T10:28:16.621Z,30.34
2018-06-29T10:29:16.477Z,30.70
2018-06-29T10:31:09.481Z,30.88
2018-06-29T10:32:09.316Z,30.91
2018-06-29T10:34:02.306Z,30.91
2018-06-29T10:35:02.284Z,30.88
2018-06-29T10:36:55.344Z,31.05
2018-06-29T10:37:55.321Z,31.71
2018-06-29T10:39:48.169Z,32.09
2018-06-29T10:40:48.141Z,31.73
2018-06-29T10:42:41.158Z,32.46
2018-06-29T10:43:41.118Z,32.30
2018-06-29T10:45:34.144Z,32.40
2018-06-29T10:46:34.067Z,32.43
2018-06-29T10:48:26.918Z,33.09
2018-06-29T10:49:26.901Z,33.24
2018-06-29T10:51:19.832Z,34.06
2018-06-29T10:52:19.728Z,33.31
2018-06-29T10:54:12.750Z,31.70
2018-06-29T10:55:12.697Z,31.24
2018-06-29T10:57:05.722Z,32.11
2018-06-29T10:58:05.676Z,32.34
2018-06-29T10:59:58.671Z,33.12
2018-06-29T11:00:58.647Z,33.39
2018-06-29T11:02:51.516Z,33.86
2018-06-29T11:03:51.484Z,33.87
2018-06-29T11:05:44.457Z,33.69
2018-06-29T11:06:44.443Z,33.84
2018-06-29T11:08:37.587Z,32.58
2018-06-29T11:09:37.508Z,33.01
2018-06-29T11:11:30.533Z,33.81
2018-06-29T11:12:30.494Z,33.02
2018-06-29T11:14:23.749Z,32.43
2018-06-29T11:15:23.614Z,32.37
2018-06-29T11:17:16.644Z,33.00
2018-06-29T11:18:16.618Z,32.92
2018-06-29T11:20:09.600Z,32.53
2018-06-29T11:21:09.586Z,32.68
2018-06-29T11:23:02.624Z,33.07
2018-06-29T11:24:02.595Z,33.20
2018-06-29T11:25:55.603Z,33.47
2018-06-29T11:26:55.573Z,33.08
2018-06-29T11:28:48.859Z,32.80
2018-06-29T11:29:48.704Z,32.89
2018-06-29T11:31:41.570Z,33.19
2018-06-29T11:32:41.540Z,32.95
2018-06-29T11:34:34.573Z,33.69
2018-06-29T11:35:34.517Z,34.08
2018-06-29T11:37:27.668Z,34.61
2018-06-29T11:38:27.654Z,34.96
2018-06-29T11:40:20.661Z,33.67
2018-06-29T11:41:20.629Z,33.43
2018-06-29T11:43:13.695Z,33.07
2018-06-29T11:44:13.741Z,33.19
2018-06-29T11:46:06.654Z,33.67
2018-06-29T11:47:06.644Z,33.34
2018-06-29T11:48:59.650Z,33.62
2018-06-29T11:49:59.609Z,33.27
2018-06-29T11:51:52.740Z,34.06
2018-06-29T11:52:52.735Z,33.55
2018-06-29T11:54:45.775Z,34.05
2018-06-29T11:55:45.739Z,34.43
2018-06-29T11:57:38.999Z,33.87
2018-06-29T11:58:38.986Z,34.20
2018-06-29T12:00:32.063Z,34.54
2018-06-29T12:01:31.979Z,35.19
2018-06-29T12:03:25.239Z,35.42
2018-06-29T12:04:25.094Z,35.49
2018-06-29T12:06:18.123Z,34.39
2018-06-29T12:07:18.305Z,34.13
2018-06-29T12:09:11.089Z,34.38
2018-06-29T12:10:11.043Z,34.70
2018-06-29T12:12:04.104Z,33.94
2018-06-29T12:13:04.085Z,33.83
2018-06-29T12:14:57.167Z,33.64
2018-06-29T12:15:57.074Z,34.16
2018-06-29T12:17:50.225Z,35.49
2018-06-29T12:18:50.212Z,35.64
2018-06-29T12:20:43.224Z,35.88
2018-06-29T12:21:43.186Z,35.15
2018-06-29T12:23:36.170Z,33.98
2018-06-29T12:24:36.156Z,33.98
2018-06-29T12:26:29.125Z,33.86
2018-06-29T12:27:28.984Z,33.62
2018-06-29T12:29:21.984Z,33.74
2018-06-29T12:30:21.971Z,33.77
2018-06-29T12:32:14.970Z,33.45
2018-06-29T12:33:14.941Z,33.08
2018-06-29T12:35:07.781Z,33.45
2018-06-29T12:36:07.760Z,33.30
2018-06-29T12:38:00.833Z,33.15
2018-06-29T12:39:00.733Z,33.64
2018-06-29T12:40:53.793Z,33.98
2018-06-29T12:41:53.732Z,34.36
2018-06-29T12:43:46.910Z,34.38
2018-06-29T12:44:46.887Z,34.33
2018-06-29T12:46:39.931Z,34.64
2018-06-29T12:47:39.886Z,34.95
2018-06-29T12:49:33.057Z,34.60
2018-06-29T12:50:33.038Z,34.88
2018-06-29T12:52:26.065Z,34.08
2018-06-29T12:53:26.036Z,34.39
2018-06-29T12:55:19.021Z,34.71
2018-06-29T12:56:19.007Z,35.15
2018-06-29T12:58:12.032Z,35.48
2018-06-29T12:59:12.002Z,35.24
2018-06-29T13:01:04.876Z,35.08
2018-06-29T13:02:04.828Z,34.54
2018-06-29T13:03:57.822Z,34.06
2018-06-29T13:04:57.804Z,34.36
2018-06-29T13:06:50.669Z,33.71
2018-06-29T13:07:50.617Z,34.05
2018-06-29T13:09:43.476Z,34.86
2018-06-29T13:10:43.449Z,34.97
2018-06-29T13:12:36.515Z,34.20
2018-06-29T13:13:36.489Z,33.95
2018-06-29T13:15:29.702Z,33.86
2018-06-29T13:16:29.599Z,34.05
2018-06-29T13:18:22.622Z,34.29
2018-06-29T13:19:22.591Z,34.08
2018-06-29T13:21:15.590Z,34.27
2018-06-29T13:22:15.581Z,34.18
2018-06-29T13:24:08.551Z,34.16
2018-06-29T13:25:08.472Z,33.71
2018-06-29T13:27:01.390Z,34.10
2018-06-29T13:28:01.373Z,33.53
2018-06-29T13:29:54.391Z,34.25
2018-06-29T13:30:54.371Z,34.40
2018-06-29T13:32:47.203Z,34.47
2018-06-29T13:33:47.275Z,34.92
2018-06-29T13:35:42.151Z,35.58
2018-06-29T13:36:40.157Z,34.89
2018-06-29T13:38:33.163Z,34.08
2018-06-29T13:39:33.137Z,33.89
2018-06-29T13:41:26.183Z,33.76
2018-06-29T13:42:26.074Z,33.37
2018-06-29T13:44:19.091Z,33.71
2018-06-29T13:45:19.047Z,33.68
2018-06-29T13:47:12.050Z,33.81
2018-06-29T13:48:12.036Z,34.23
2018-06-29T13:50:05.121Z,34.27
2018-06-29T13:51:05.094Z,33.99
2018-06-29T13:52:58.068Z,33.39
2018-06-29T13:53:58.078Z,33.42
2018-06-29T13:55:51.263Z,33.45
2018-06-29T13:56:51.171Z,33.64
2018-06-29T13:58:44.181Z,34.06
2018-06-29T13:59:44.137Z,34.36
2018-06-29T14:01:37.121Z,35.12
2018-06-29T14:02:37.284Z,34.62
2018-06-29T14:04:30.031Z,34.13
2018-06-29T14:05:29.960Z,34.23
2018-06-29T14:07:22.989Z,34.90
2018-06-29T14:08:22.965Z,34.45
2018-06-29T14:10:15.969Z,34.18
2018-06-29T14:11:15.961Z,34.30
2018-06-29T14:13:08.995Z,33.61
2018-06-29T14:14:08.893Z,33.65
2018-06-29T14:16:01.911Z,33.47
2018-06-29T14:17:01.894Z,33.71
2018-06-29T14:18:54.877Z,34.25
2018-06-29T14:19:54.856Z,34.48
2018-06-29T14:21:47.786Z,35.23
2018-06-29T14:22:47.713Z,35.53
2018-06-29T14:24:40.744Z,34.99
2018-06-29T14:25:40.728Z,34.47
2018-06-29T14:27:33.686Z,34.52
2018-06-29T14:28:33.667Z,34.48
2018-06-29T14:30:26.603Z,34.55
2018-06-29T14:31:26.561Z,34.47
2018-06-29T14:33:19.541Z,34.43
2018-06-29T14:34:19.519Z,34.43
2018-06-29T14:36:12.624Z,34.35
2018-06-29T14:37:12.588Z,34.54
2018-06-29T14:39:05.649Z,34.95
2018-06-29T14:40:05.619Z,35.24
2018-06-29T14:41:58.480Z,35.36
2018-06-29T14:42:58.446Z,35.36
2018-06-29T14:44:51.428Z,34.99
2018-06-29T14:45:51.409Z,34.80
2018-06-29T14:47:44.489Z,33.74
2018-06-29T14:48:44.454Z,34.06
2018-06-29T14:50:37.444Z,34.01
2018-06-29T14:51:37.505Z,34.21
2018-06-29T14:53:30.640Z,34.27
2018-06-29T14:54:30.549Z,34.57
2018-06-29T14:56:23.600Z,34.43
2018-06-29T14:57:23.562Z,34.51
2018-06-29T14:59:16.580Z,34.57
2018-06-29T15:00:16.531Z,34.40
2018-06-29T15:02:09.368Z,34.39
2018-06-29T15:03:09.347Z,34.55
2018-06-29T15:05:02.384Z,34.50
2018-06-29T15:06:02.333Z,34.35
2018-06-29T15:07:55.390Z,34.57
2018-06-29T15:08:55.375Z,34.52
2018-06-29T15:10:48.273Z,34.58
2018-06-29T15:11:48.210Z,34.02
2018-06-29T15:13:41.214Z,34.13
2018-06-29T15:14:41.190Z,34.05
2018-06-29T15:16:34.175Z,34.06
2018-06-29T15:17:34.141Z,34.08
2018-06-29T15:19:26.991Z,34.42
2018-06-29T15:20:26.961Z,34.60
2018-06-29T15:22:19.980Z,34.77
2018-06-29T15:23:19.949Z,34.57
2018-06-29T15:25:12.991Z,33.84
2018-06-29T15:26:12.944Z,34.01
2018-06-29T15:28:06.116Z,34.25
2018-06-29T15:29:06.063Z,34.20
2018-06-29T15:30:59.010Z,33.73
2018-06-29T15:31:58.877Z,33.74
2018-06-29T15:33:51.862Z,33.47
2018-06-29T15:34:51.842Z,33.71
2018-06-29T15:36:44.715Z,33.84
2018-06-29T15:37:44.686Z,33.62
2018-06-29T15:39:37.693Z,33.40
2018-06-29T15:40:37.659Z,33.50
2018-06-29T15:42:30.670Z,33.27
2018-06-29T15:43:30.633Z,33.17
2018-06-29T15:45:23.538Z,33.23
2018-06-29T15:46:23.448Z,33.45
2018-06-29T15:48:16.486Z,33.89
2018-06-29T15:49:16.439Z,34.01
2018-06-29T15:51:09.449Z,34.13
2018-06-29T15:52:09.430Z,33.73
2018-06-29T15:54:02.601Z,33.40
2018-06-29T15:55:02.549Z,33.45
2018-06-29T15:56:55.556Z,32.95
2018-06-29T15:57:55.514Z,33.09
2018-06-29T15:59:48.529Z,33.50
2018-06-29T16:00:48.500Z,33.77
2018-06-29T16:02:41.554Z,34.16
2018-06-29T16:03:41.481Z,34.03
2018-06-29T16:05:34.468Z,33.57
2018-06-29T16:06:34.456Z,33.64
2018-06-29T16:08:27.464Z,33.50
2018-06-29T16:09:27.428Z,33.42
2018-06-29T16:11:20.367Z,32.82
2018-06-29T16:12:20.282Z,32.90
2018-06-29T16:14:13.103Z,33.23
2018-06-29T16:15:13.063Z,32.95
2018-06-29T16:17:06.052Z,33.09
2018-06-29T16:18:06.034Z,33.27
2018-06-29T16:19:59.242Z,33.28
2018-06-29T16:20:59.125Z,33.32
2018-06-29T16:22:52.111Z,33.61
2018-06-29T16:23:52.097Z,33.64
2018-06-29T16:25:45.109Z,33.69
2018-06-29T16:26:45.058Z,33.87
2018-06-29T16:28:37.919Z,34.33
2018-06-29T16:29:37.937Z,34.08
2018-06-29T16:31:30.734Z,34.58
2018-06-29T16:32:30.700Z,33.94
2018-06-29T16:34:23.694Z,34.14
2018-06-29T16:35:23.666Z,34.45
2018-06-29T16:37:16.778Z,34.08
2018-06-29T16:38:16.744Z,33.87
2018-06-29T16:40:09.749Z,33.68
2018-06-29T16:41:09.715Z,33.64
2018-06-29T16:43:02.702Z,33.71
2018-06-29T16:44:02.679Z,33.74
2018-06-29T16:45:55.549Z,33.81
2018-06-29T16:46:55.512Z,33.76
2018-06-29T16:48:48.517Z,34.30
2018-06-29T16:49:48.497Z,34.55
2018-06-29T16:51:41.516Z,35.12
2018-06-29T16:52:41.474Z,34.74
2018-06-29T16:54:34.685Z,34.24
2018-06-29T16:55:34.575Z,33.65
2018-06-29T16:57:27.593Z,33.53
2018-06-29T16:58:27.539Z,33.49
2018-06-29T17:00:20.543Z,33.53
2018-06-29T17:01:20.516Z,33.22
2018-06-29T17:03:13.557Z,33.28
2018-06-29T17:04:13.509Z,33.08
2018-06-29T17:06:06.513Z,32.85
2018-06-29T17:07:06.567Z,32.70
2018-06-29T17:08:59.705Z,33.02
2018-06-29T17:09:59.603Z,33.09
2018-06-29T17:11:52.622Z,33.28
2018-06-29T17:12:52.585Z,33.45
2018-06-29T17:14:45.560Z,33.27
2018-06-29T17:15:45.546Z,33.02
2018-06-29T17:17:38.389Z,32.67
2018-06-29T17:18:38.389Z,32.43
2018-06-29T17:20:31.274Z,32.34
2018-06-29T17:21:31.169Z,32.49
2018-06-29T17:23:24.034Z,32.51
2018-06-29T17:24:23.985Z,32.33
2018-06-29T17:26:16.825Z,32.14
2018-06-29T17:27:16.784Z,31.94
2018-06-29T17:29:09.901Z,31.46
2018-06-29T17:30:09.736Z,31.31
2018-06-29T17:32:02.699Z,31.03
2018-06-29T17:33:02.540Z,31.12
2018-06-29T17:34:55.385Z,30.99
2018-06-29T17:35:55.364Z,31.00
2018-06-29T17:37:48.354Z,31.02
2018-06-29T17:38:48.314Z,31.05
2018-06-29T17:40:41.768Z,30.92
2018-06-29T17:41:41.441Z,30.85
2018-06-29T17:43:34.621Z,30.94
2018-06-29T17:44:34.587Z,30.88
2018-06-29T17:46:27.434Z,30.70
2018-06-29T17:47:27.381Z,30.51
2018-06-29T17:49:20.268Z,30.55
2018-06-29T17:50:20.214Z,30.68
2018-06-29T17:52:13.211Z,30.59
2018-06-29T17:53:13.172Z,30.55
2018-06-29T17:55:06.264Z,30.59
2018-06-29T17:56:06.125Z,30.65
2018-06-29T17:57:59.295Z,30.51
2018-06-29T17:58:59.227Z,30.30
2018-06-29T18:00:52.236Z,30.27
2018-06-29T18:01:52.184Z,30.40
2018-06-29T18:03:45.177Z,30.27
2018-06-29T18:04:45.137Z,30.32
2018-06-29T18:06:38.130Z,30.28
2018-06-29T18:07:38.096Z,30.24
2018-06-29T18:09:31.097Z,30.13
2018-06-29T18:10:31.051Z,30.18
2018-06-29T18:12:23.898Z,30.19
2018-06-29T18:13:23.965Z,30.16
2018-06-29T18:15:16.937Z,30.13
2018-06-29T18:16:16.883Z,30.05
2018-06-29T18:18:09.812Z,30.09
2018-06-29T18:19:09.766Z,29.93
2018-06-29T18:21:02.639Z,29.72
2018-06-29T18:22:02.582Z,29.75
2018-06-29T18:23:55.918Z,29.54
2018-06-29T18:24:55.763Z,29.54
2018-06-29T18:26:48.742Z,29.61
2018-06-29T18:27:48.702Z,29.76
2018-06-29T18:29:41.778Z,29.51
2018-06-29T18:30:41.672Z,29.66
2018-06-29T18:32:34.494Z,29.60
2018-06-29T18:33:34.459Z,29.47